createdAt,value
2019-02-09T00:01:24.059Z,203.70
2019-02-09T00:05:35.217Z,203.90
2019-02-09T00:09:46.277Z,209.67
2019-02-09T00:13:57.353Z,209.30
2019-02-09T00:18:08.466Z,209.33
2019-02-09T00:22:19.452Z,204.63
2019-02-09T00:26:30.377Z,201.90
2019-02-09T00:30:41.231Z,209.03
2019-02-09T00:34:52.300Z,200.73
2019-02-09T00:39:03.189Z,199.53
2019-02-09T00:43:13.995Z,202.20
2019-02-09T00:47:24.933Z,209.73
2019-02-09T00:51:36.009Z,216.93
2019-02-09T00:55:46.924Z,203.47
2019-02-09T00:59:57.349Z,207.83
2019-02-09T01:04:08.422Z,201.20
2019-02-09T01:08:19.467Z,202.07
2019-02-09T01:12:30.329Z,210.73
2019-02-09T01:16:41.153Z,209.67
2019-02-09T01:20:51.972Z,214.40
2019-02-09T01:25:02.999Z,196.27
2019-02-09T01:29:13.809Z,199.10
2019-02-09T01:33:24.724Z,205.73
2019-02-09T01:37:35.651Z,209.53
2019-02-09T01:41:46.475Z,208.83
2019-02-09T01:45:57.654Z,208.03
2019-02-09T01:50:11.957Z,204.43
2019-02-09T01:54:22.787Z,204.57
2019-02-09T01:58:33.595Z,202.47
2019-02-09T02:02:44.426Z,207.77
2019-02-09T02:06:55.240Z,200.43
2019-02-09T02:11:06.158Z,205.03
2019-02-09T02:15:18.298Z,208.87
2019-02-09T02:19:29.706Z,201.10
2019-02-09T02:23:41.404Z,202.83
2019-02-09T02:27:52.225Z,209.87
2019-02-09T02:32:03.155Z,194.47
2019-02-09T02:36:14.075Z,199.43
2019-02-09T02:40:25.055Z,217.53
2019-02-09T02:44:35.836Z,207.57
2019-02-09T02:48:46.681Z,217.47
2019-02-09T02:52:58.200Z,210.07
2019-02-09T02:57:09.052Z,198.47
2019-02-09T03:01:20.161Z,201.07
2019-02-09T03:05:30.556Z,201.37
2019-02-09T03:09:40.507Z,207.10
2019-02-09T03:13:51.359Z,208.03
2019-02-09T03:18:02.301Z,205.97
2019-02-09T03:22:13.269Z,205.10
2019-02-09T03:26:24.202Z,197.30
2019-02-09T03:30:47.159Z,206.90
2019-02-09T03:34:48.385Z,196.27
2019-02-09T03:38:59.216Z,199.70
2019-02-09T03:43:10.136Z,206.63
2019-02-09T03:51:30.346Z,203.27
2019-02-09T03:55:41.156Z,197.57
2019-02-09T03:59:52.066Z,213.23
2019-02-09T04:04:02.982Z,207.73
2019-02-09T04:08:13.894Z,208.47
2019-02-09T04:12:24.800Z,211.77
2019-02-09T04:16:35.623Z,215.17
2019-02-09T04:20:46.440Z,200.40
2019-02-09T04:24:57.254Z,202.83
2019-02-09T04:29:08.160Z,197.20
2019-02-09T04:33:19.499Z,201.33
2019-02-09T04:37:30.484Z,201.87
2019-02-09T04:41:41.366Z,200.60
2019-02-09T04:45:52.312Z,202.33
2019-02-09T04:50:04.757Z,202.90
2019-02-09T04:54:15.588Z,207.70
2019-02-09T04:58:26.431Z,199.53
2019-02-09T05:02:37.244Z,208.17
2019-02-09T05:06:48.055Z,207.07
2019-02-09T05:10:59.000Z,212.93
2019-02-09T05:15:12.248Z,213.17
2019-02-09T05:19:23.079Z,211.83
2019-02-09T05:23:34.101Z,206.10
2019-02-09T05:27:45.019Z,204.03
2019-02-09T05:31:55.941Z,205.27
2019-02-09T05:36:06.767Z,206.37
2019-02-09T05:40:22.826Z,207.77
2019-02-09T05:44:33.748Z,215.83
2019-02-09T05:48:44.671Z,203.83
2019-02-09T05:52:55.476Z,204.43
2019-02-09T05:57:06.399Z,196.00
2019-02-09T06:01:17.408Z,205.37
2019-02-09T06:05:28.423Z,207.13
2019-02-09T06:09:39.330Z,206.83
2019-02-09T06:13:50.142Z,201.53
2019-02-09T06:18:01.074Z,199.87
2019-02-09T06:22:11.991Z,207.87
2019-02-09T06:26:23.078Z,201.70
2019-02-09T06:30:35.126Z,208.93
2019-02-09T06:34:46.033Z,195.90
2019-02-09T06:38:56.968Z,204.13
2019-02-09T06:43:07.882Z,211.73
2019-02-09T06:47:18.833Z,200.50
2019-02-09T06:51:29.648Z,201.27
2019-02-09T06:55:40.577Z,200.03
2019-02-09T06:59:51.408Z,204.53
2019-02-09T07:04:02.320Z,207.77
2019-02-09T07:08:13.969Z,201.33
2019-02-09T07:12:24.901Z,204.77
2019-02-09T07:16:35.812Z,214.63
2019-02-09T07:20:46.632Z,201.80
2019-02-09T07:24:57.473Z,195.20
2019-02-09T07:29:08.283Z,201.07
2019-02-09T07:33:19.109Z,195.43
2019-02-09T07:37:30.025Z,202.60
2019-02-09T07:41:40.841Z,198.00
2019-02-09T07:45:51.756Z,199.77
2019-02-09T07:50:03.152Z,202.87
2019-02-09T07:54:14.066Z,205.83
2019-02-09T07:58:24.995Z,198.37
2019-02-09T08:02:35.837Z,202.40
2019-02-09T08:06:46.689Z,201.07
2019-02-09T08:10:59.616Z,202.73
2019-02-09T08:15:13.699Z,205.00
2019-02-09T08:19:24.637Z,207.57
2019-02-09T08:23:36.004Z,203.20
2019-02-09T08:27:48.578Z,202.87
2019-02-09T08:31:59.524Z,206.67
2019-02-09T08:36:10.488Z,209.20
2019-02-09T08:40:20.665Z,211.90
2019-02-09T08:44:31.577Z,220.70
2019-02-09T08:48:42.400Z,213.77
2019-02-09T08:52:53.322Z,209.20
2019-02-09T08:57:04.448Z,215.07
2019-02-09T09:01:14.767Z,204.47
2019-02-09T09:05:25.599Z,218.23
2019-02-09T09:09:36.420Z,223.90
2019-02-09T09:13:48.952Z,221.47
2019-02-09T09:18:01.256Z,209.07
2019-02-09T09:22:11.864Z,213.53
2019-02-09T09:26:22.718Z,208.53
2019-02-09T09:30:34.485Z,220.10
2019-02-09T09:34:45.408Z,223.57
2019-02-09T09:38:56.261Z,215.93
2019-02-09T09:43:07.131Z,211.20
2019-02-09T09:47:21.463Z,214.70
2019-02-09T09:51:32.247Z,211.07
2019-02-09T09:55:43.274Z,214.73
2019-02-09T09:59:54.092Z,209.37
2019-02-09T10:04:04.587Z,205.17
2019-02-09T10:08:14.989Z,209.83
2019-02-09T10:12:25.663Z,217.50
2019-02-09T10:16:36.634Z,222.67
2019-02-09T10:20:48.439Z,218.63
2019-02-09T10:25:00.275Z,214.73
2019-02-09T10:29:11.873Z,205.87
2019-02-09T10:33:22.831Z,232.50
2019-02-09T10:37:33.783Z,227.50
2019-02-09T10:41:46.017Z,222.20
2019-02-09T10:45:56.974Z,214.17
2019-02-09T10:50:11.526Z,210.07
2019-02-09T10:54:22.367Z,214.10
2019-02-09T10:58:33.343Z,215.70
2019-02-09T11:02:51.911Z,206.83
2019-02-09T11:06:57.182Z,211.77
2019-02-09T11:11:08.405Z,208.80
2019-02-09T11:15:22.641Z,206.87
2019-02-09T11:19:33.461Z,208.27
2019-02-09T11:23:44.887Z,211.00
2019-02-09T11:27:55.708Z,204.93
2019-02-09T11:32:09.036Z,206.20
2019-02-09T11:36:23.968Z,218.67
2019-02-09T11:40:38.003Z,222.70
2019-02-09T11:44:49.709Z,217.70
2019-02-09T11:49:01.404Z,213.80
2019-02-09T11:53:13.267Z,206.67
2019-02-09T11:57:23.656Z,209.60
2019-02-09T12:01:36.037Z,208.73
2019-02-09T12:05:47.020Z,205.47
2019-02-09T12:09:58.868Z,203.10
2019-02-09T12:14:11.893Z,215.00
2019-02-09T12:18:22.849Z,214.27
2019-02-09T12:22:33.817Z,214.83
2019-02-09T12:26:50.074Z,207.53
2019-02-09T12:31:00.869Z,213.03
2019-02-09T12:35:12.870Z,210.57
2019-02-09T12:39:25.365Z,224.10
2019-02-09T12:43:39.978Z,226.40
2019-02-09T12:47:50.886Z,217.93
2019-02-09T12:52:05.619Z,221.90
2019-02-09T12:56:16.558Z,215.57
2019-02-09T13:00:34.669Z,220.93
2019-02-09T13:04:48.814Z,218.33
2019-02-09T13:08:59.609Z,219.53
2019-02-09T13:13:10.543Z,222.57
2019-02-09T13:17:21.405Z,215.53
2019-02-09T13:21:32.232Z,220.90
2019-02-09T13:25:43.205Z,213.00
2019-02-09T13:29:54.047Z,224.13
2019-02-09T13:34:05.724Z,213.13
2019-02-09T13:38:16.867Z,225.20
2019-02-09T13:42:27.712Z,226.07
2019-02-09T13:46:38.579Z,225.30
2019-02-09T13:50:49.377Z,236.37
2019-02-09T13:55:00.290Z,221.83
2019-02-09T13:59:11.275Z,228.33
2019-02-09T14:03:22.199Z,210.13
2019-02-09T14:07:33.395Z,221.03
2019-02-09T14:11:44.334Z,228.93
2019-02-09T14:15:55.161Z,217.03
2019-02-09T14:20:08.783Z,216.67
2019-02-09T14:24:19.617Z,219.03
2019-02-09T14:28:31.301Z,221.30
2019-02-09T14:32:45.368Z,219.07
2019-02-09T14:36:56.329Z,217.80
2019-02-09T14:41:08.116Z,209.97
2019-02-09T14:45:29.100Z,218.50
2019-02-09T14:49:43.965Z,214.47
2019-02-09T14:53:55.318Z,217.90
2019-02-09T14:58:06.794Z,218.13
2019-02-09T15:02:17.623Z,218.30
2019-02-09T15:06:28.543Z,216.23
2019-02-09T15:10:40.458Z,236.93
2019-02-09T15:14:50.847Z,227.57
2019-02-09T15:19:01.871Z,221.60
2019-02-09T15:23:12.876Z,219.17
2019-02-09T15:27:24.149Z,223.00
2019-02-09T15:31:35.808Z,211.87
2019-02-09T15:35:46.663Z,222.93
2019-02-09T15:39:57.712Z,227.20
2019-02-09T15:44:08.558Z,213.77
2019-02-09T15:48:19.508Z,222.43
2019-02-09T15:52:33.832Z,222.47
2019-02-09T15:56:44.708Z,234.80
2019-02-09T16:00:55.556Z,212.50
2019-02-09T16:05:09.716Z,214.03
2019-02-09T16:09:20.551Z,218.03
2019-02-09T16:13:32.955Z,215.07
2019-02-09T16:17:43.775Z,219.00
2019-02-09T16:21:53.697Z,225.43
2019-02-09T16:26:04.683Z,217.60
2019-02-09T16:30:32.234Z,223.27
2019-02-09T16:34:44.363Z,208.27
2019-02-09T16:38:55.189Z,220.30
2019-02-09T16:43:06.265Z,222.17
2019-02-09T16:47:17.179Z,223.77
2019-02-09T16:51:28.113Z,233.07
2019-02-09T16:55:39.045Z,217.10
2019-02-09T16:59:49.991Z,218.50
2019-02-09T17:04:00.937Z,211.53
2019-02-09T17:08:11.875Z,211.57
2019-02-09T17:12:22.908Z,221.23
2019-02-09T17:16:33.820Z,224.53
2019-02-09T17:20:43.792Z,211.53
2019-02-09T17:24:54.644Z,210.37
2019-02-09T17:29:05.456Z,217.13
2019-02-09T17:33:16.360Z,222.83
2019-02-09T17:37:27.278Z,226.83
2019-02-09T17:41:38.095Z,217.20
2019-02-09T17:45:54.804Z,220.53
2019-02-09T17:50:08.370Z,213.33
2019-02-09T17:54:19.326Z,229.73
2019-02-09T17:58:30.242Z,215.47
2019-02-09T18:02:41.057Z,209.00
2019-02-09T18:06:51.920Z,214.20
2019-02-09T18:11:04.749Z,210.97
2019-02-09T18:15:18.167Z,213.07
2019-02-09T18:19:28.971Z,215.33
2019-02-09T18:23:38.804Z,217.47
2019-02-09T18:27:49.627Z,208.67
2019-02-09T18:32:00.633Z,216.83
2019-02-09T18:36:11.735Z,213.77
2019-02-09T18:40:27.582Z,218.40
2019-02-09T18:44:38.276Z,222.53
2019-02-09T18:48:48.865Z,221.87
2019-02-09T18:53:00.711Z,205.50
2019-02-09T18:57:13.815Z,225.47
2019-02-09T19:01:29.977Z,216.33
2019-02-09T19:05:42.163Z,207.00
2019-02-09T19:09:56.295Z,214.70
2019-02-09T19:14:07.243Z,212.07
2019-02-09T19:18:18.044Z,217.77
2019-02-09T19:22:29.727Z,213.57
2019-02-09T19:26:40.640Z,201.93
2019-02-09T19:30:51.469Z,208.47
2019-02-09T19:35:01.319Z,207.93
2019-02-09T19:39:12.132Z,207.80
2019-02-09T19:43:24.895Z,214.60
2019-02-09T19:47:39.159Z,210.37
2019-02-09T19:51:49.985Z,208.03
2019-02-09T19:56:00.882Z,203.33
2019-02-09T20:00:33.745Z,207.97
2019-02-09T20:04:44.549Z,209.97
2019-02-09T20:08:54.397Z,209.53
2019-02-09T20:13:05.987Z,211.53
2019-02-09T20:17:17.030Z,215.47
2019-02-09T20:21:27.942Z,221.33
2019-02-09T20:25:39.441Z,217.60
2019-02-09T20:29:50.774Z,213.07
2019-02-09T20:34:01.783Z,210.53
2019-02-09T20:38:12.565Z,207.50
2019-02-09T20:42:23.374Z,213.23
2019-02-09T20:46:33.251Z,220.50
2019-02-09T20:50:44.077Z,213.50
2019-02-09T20:54:54.992Z,220.23
2019-02-09T21:03:15.084Z,209.47
2019-02-09T21:07:25.907Z,224.90
2019-02-09T21:11:36.754Z,227.93
2019-02-09T21:15:50.965Z,212.60
2019-02-09T21:20:02.524Z,209.83
2019-02-09T21:24:12.444Z,219.00
2019-02-09T21:28:23.381Z,216.10
2019-02-09T21:32:40.191Z,213.53
2019-02-09T21:36:47.152Z,210.80
2019-02-09T21:40:57.972Z,213.43
2019-02-09T21:45:12.074Z,213.17
2019-02-09T21:49:22.895Z,219.90
2019-02-09T21:53:34.975Z,214.40
2019-02-09T21:57:45.819Z,209.87
2019-02-09T22:01:56.773Z,220.10
2019-02-09T22:06:08.197Z,223.13
2019-02-09T22:10:20.849Z,221.17
2019-02-09T22:14:31.728Z,215.20
2019-02-09T22:18:42.366Z,212.83
2019-02-09T22:22:57.083Z,212.27
2019-02-09T22:27:07.976Z,222.93
2019-02-09T22:31:21.830Z,211.73
2019-02-09T22:35:31.573Z,218.33
2019-02-09T22:39:42.683Z,213.37
2019-02-09T22:43:53.573Z,216.33
2019-02-09T22:48:05.937Z,221.37
2019-02-09T22:52:16.762Z,213.03
2019-02-09T22:56:28.856Z,215.73
2019-02-09T23:01:02.445Z,224.90
2019-02-09T23:05:16.095Z,220.07
2019-02-09T23:09:27.903Z,203.90
2019-02-09T23:13:38.819Z,209.47
2019-02-09T23:17:49.839Z,210.37
2019-02-09T23:22:01.204Z,215.07
2019-02-09T23:26:11.259Z,211.00
2019-02-09T23:30:23.714Z,213.17
2019-02-09T23:34:36.176Z,209.60
2019-02-09T23:38:47.072Z,213.43
2019-02-09T23:42:59.057Z,212.37
2019-02-09T23:47:12.100Z,212.00
2019-02-09T23:51:25.128Z,215.07
2019-02-09T23:55:36.071Z,218.40
2019-02-09T23:59:46.916Z,210.53
